Time;durP1;ratioP1;P1;durP2;ratioP2;P2;SDS_P1;SDS_P2;PMS_P1;PMS_P2;Temp;Humidity;BMP_temperature;BMP_pressure;BME280_temperature;BME280_humidity;BME280_pressure;Samples;Min_cycle;Max_cycle;Signal;HPM_P1;HPM_P2
2024/02/29 00:01:38;;;;;;;9.70;5.00;;;;;;;5.39;55.14;101441.98;105292;1255;60527;-60
2024/02/29 00:04:06;;;;;;;14.20;5.10;;;;;;;5.47;55.26;101444.27;105143;1254;60553;-59
2024/02/29 00:06:34;;;;;;;12.50;5.30;;;;;;;5.55;55.20;101442.73;105091;1254;63711;-60
2024/02/29 00:09:02;;;;;;;12.50;6.60;;;;;;;5.59;55.12;101437.14;108798;1255;73036;-60
2024/02/29 00:11:30;;;;;;;17.00;6.50;;;;;;;5.57;55.08;101437.74;105780;1257;62975;-61
2024/02/29 00:13:58;;;;;;;14.70;5.30;;;;;;;5.56;55.05;101439.58;105102;1254;60444;-61
2024/02/29 00:16:25;;;;;;;12.50;5.70;;;;;;;5.54;55.00;101438.58;105781;1254;60440;-62
2024/02/29 00:18:53;;;;;;;16.00;6.30;;;;;;;5.50;54.85;101442.94;105209;1257;64949;-63
2024/02/29 00:21:21;;;;;;;10.40;4.50;;;;;;;5.45;54.78;101440.20;105751;1254;61729;-62
2024/02/29 00:23:49;;;;;;;13.10;6.60;;;;;;;5.38;54.60;101439.23;105915;1259;62725;-63
2024/02/29 00:26:16;;;;;;;13.50;5.90;;;;;;;5.30;54.65;101438.02;105323;1257;60833;-62
2024/02/29 00:28:44;;;;;;;15.40;6.10;;;;;;;5.21;54.74;101435.43;105106;1254;175456;-63
2024/02/29 00:32:35;;;;;;;16.90;7.20;;;;;;;4.64;56.33;101433.99;102346;1294;600403;-60
2024/02/29 00:35:04;;;;;;;21.30;7.80;;;;;;;4.88;55.63;101427.88;104316;1266;59177;-60
2024/02/29 00:37:33;;;;;;;19.10;7.20;;;;;;;4.85;55.71;101430.23;104673;1266;59438;-60
2024/02/29 00:40:01;;;;;;;14.20;5.30;;;;;;;4.81;55.69;101428.52;104769;1271;63419;-60
2024/02/29 00:42:28;;;;;;;11.30;6.50;;;;;;;4.76;55.87;101427.64;104244;1266;61536;-60
2024/02/29 00:44:56;;;;;;;12.70;6.20;;;;;;;4.73;55.92;101425.52;105586;1271;169626;-61
2024/02/29 00:47:24;;;;;;;15.50;6.80;;;;;;;4.69;55.99;101424.43;104435;1265;60020;-61
2024/02/29 00:49:52;;;;;;;17.70;7.30;;;;;;;4.66;56.02;101425.26;105112;1266;60015;-61
2024/02/29 00:52:19;;;;;;;12.80;6.00;;;;;;;4.62;55.97;101428.86;104609;1268;63695;-59
2024/02/29 00:54:47;;;;;;;11.70;5.10;;;;;;;4.60;56.10;101428.77;104633;1268;60276;-61
2024/02/29 00:57:15;;;;;;;13.70;4.50;;;;;;;4.62;55.95;101430.25;105288;1266;62553;-60
2024/02/29 00:59:43;;;;;;;12.20;4.00;;;;;;;4.69;56.00;101425.66;104513;1268;59653;-60
2024/02/29 01:02:10;;;;;;;11.60;4.30;;;;;;;4.76;55.98;101421.91;104576;1268;59688;-59
2024/02/29 01:04:38;;;;;;;10.70;4.10;;;;;;;4.82;56.07;101418.19;104453;1264;62924;-60
2024/02/29 01:07:06;;;;;;;8.50;3.40;;;;;;;4.90;56.01;101419.78;104617;1267;60263;-60
2024/02/29 01:09:34;;;;;;;13.30;4.60;;;;;;;4.96;55.88;101423.02;104701;1270;62592;-60
2024/02/29 01:12:02;;;;;;;14.40;7.60;;;;;;;5.01;55.87;101422.67;104738;1268;59763;-61
2024/02/29 01:14:29;;;;;;;13.20;4.80;;;;;;;5.02;55.80;101429.56;104909;1264;59630;-60
2024/02/29 01:16:57;;;;;;;15.00;4.60;;;;;;;5.02;55.69;101423.47;104547;1268;62925;-60
2024/02/29 01:19:25;;;;;;;14.10;5.30;;;;;;;5.01;55.48;101415.89;104292;1271;60262;-64
2024/02/29 01:21:52;;;;;;;14.10;6.30;;;;;;;4.97;55.41;101417.25;105007;1269;62553;-60
2024/02/29 01:24:20;;;;;;;10.50;4.70;;;;;;;4.92;55.22;101417.98;105035;1268;59749;-60
2024/02/29 01:26:48;;;;;;;13.70;4.90;;;;;;;4.86;55.22;101417.52;104491;1263;59832;-61
2024/02/29 01:29:15;;;;;;;9.80;4.10;;;;;;;4.82;55.21;101419.77;105287;1263;64287;-60
2024/02/29 01:31:43;;;;;;;20.50;6.00;;;;;;;4.78;55.22;101415.40;104309;1269;60307;-61
2024/02/29 01:34:11;;;;;;;12.10;4.60;;;;;;;4.73;55.15;101414.90;104465;1268;63964;-61
2024/02/29 01:36:38;;;;;;;15.00;3.80;;;;;;;4.70;55.19;101413.48;104628;1268;60938;-60
2024/02/29 01:39:06;;;;;;;14.80;5.70;;;;;;;4.64;55.17;101413.33;104543;1269;59690;-60
2024/02/29 01:41:34;;;;;;;13.40;5.50;;;;;;;4.60;55.27;101414.52;104837;1268;64764;-60
2024/02/29 01:44:02;;;;;;;14.20;5.00;;;;;;;4.57;55.43;101411.16;104774;1266;61530;-60
2024/02/29 01:46:30;;;;;;;12.10;5.00;;;;;;;4.54;55.63;101410.25;104516;1268;62561;-61
2024/02/29 01:48:57;;;;;;;22.20;4.40;;;;;;;4.51;55.73;101411.73;104888;1269;59558;-60
2024/02/29 01:51:25;;;;;;;12.90;4.30;;;;;;;4.50;55.65;101411.62;105691;1264;59737;-61
2024/02/29 01:53:54;;;;;;;11.70;4.80;;;;;;;4.49;55.77;101410.81;104392;1263;62936;-61
2024/02/29 01:56:22;;;;;;;8.90;3.80;;;;;;;4.44;55.80;101409.38;105054;1264;62072;-61
2024/02/29 01:58:50;;;;;;;10.50;3.00;;;;;;;4.42;55.96;101413.83;104999;1266;62535;-61
2024/02/29 02:01:17;;;;;;;9.30;2.60;;;;;;;4.46;55.94;101417.16;104465;1271;59930;-60
2024/02/29 02:03:45;;;;;;;11.30;3.20;;;;;;;4.54;55.80;101416.50;104388;1271;59578;-61
2024/02/29 02:06:13;;;;;;;11.10;3.80;;;;;;;4.59;55.67;101413.70;104493;1270;63713;-61
2024/02/29 02:08:41;;;;;;;7.40;2.80;;;;;;;4.66;55.74;101412.39;105436;1268;60502;-61
2024/02/29 02:11:08;;;;;;;8.00;3.00;;;;;;;4.75;55.70;101411.70;104555;1269;63889;-60
2024/02/29 02:13:36;;;;;;;11.00;3.30;;;;;;;4.83;55.68;101409.64;104581;1268;59755;-60
2024/02/29 02:16:05;;;;;;;11.40;3.10;;;;;;;4.89;55.62;101408.90;104820;1267;59745;-60
2024/02/29 02:18:34;;;;;;;9.30;3.00;;;;;;;4.91;55.52;101411.56;104693;1263;64202;-61
2024/02/29 02:21:02;;;;;;;11.90;4.10;;;;;;;4.93;55.48;101409.92;104730;1268;60323;-61
2024/02/29 02:23:30;;;;;;;9.00;3.50;;;;;;;4.93;55.32;101409.78;104964;1268;63826;-60
2024/02/29 02:25:59;;;;;;;8.70;2.80;;;;;;;4.91;55.23;101412.64;104724;1264;59679;-60
2024/02/29 02:28:27;;;;;;;14.00;4.60;;;;;;;4.90;55.28;101413.37;104983;1268;59710;-60
2024/02/29 02:30:55;;;;;;;12.00;3.00;;;;;;;4.87;55.23;101414.36;105132;1268;64235;-60
2024/02/29 02:33:23;;;;;;;9.50;4.40;;;;;;;4.82;55.27;101412.81;105114;1268;61734;-60
2024/02/29 02:35:51;;;;;;;7.90;3.00;;;;;;;4.78;55.27;101413.29;104576;1263;62540;-61
2024/02/29 02:38:19;;;;;;;15.60;4.20;;;;;;;4.74;55.32;101415.38;105228;1270;59773;-60
2024/02/29 02:40:47;;;;;;;9.50;3.60;;;;;;;4.73;55.29;101416.30;104455;1262;59737;-60
2024/02/29 02:43:15;;;;;;;10.40;3.30;;;;;;;4.72;55.36;101416.52;104583;1264;62898;-60
2024/02/29 02:45:43;;;;;;;9.10;4.20;;;;;;;4.70;55.41;101416.05;104646;1268;61476;-60
2024/02/29 02:48:11;;;;;;;8.70;3.10;;;;;;;4.70;55.43;101413.11;104689;1277;62596;-61
2024/02/29 02:50:39;;;;;;;6.90;3.20;;;;;;;4.66;55.44;101413.96;104753;1268;59813;-60
2024/02/29 02:53:07;;;;;;;8.20;2.70;;;;;;;4.61;55.51;101413.61;104755;1268;59544;-59
2024/02/29 02:55:35;;;;;;;14.00;3.60;;;;;;;4.58;55.62;101416.69;104889;1270;64203;-60
2024/02/29 02:58:03;;;;;;;7.50;3.00;;;;;;;4.55;55.60;101415.59;105001;1268;62573;-60
2024/02/29 03:00:31;;;;;;;8.20;3.60;;;;;;;4.49;55.67;101415.13;104853;1277;62554;-59
2024/02/29 03:03:00;;;;;;;8.30;2.90;;;;;;;4.45;55.73;101416.16;104442;1264;59740;-60
2024/02/29 03:05:28;;;;;;;7.10;2.80;;;;;;;4.46;55.62;101412.30;105056;1266;59765;-60
2024/02/29 03:07:55;;;;;;;6.70;2.00;;;;;;;4.52;55.65;101416.40;104687;1264;63163;-60
2024/02/29 03:10:23;;;;;;;6.00;2.40;;;;;;;4.60;55.72;101411.73;104597;1265;61594;-60
2024/02/29 03:12:51;;;;;;;5.70;2.30;;;;;;;4.68;55.68;101409.18;105099;1268;62532;-60
2024/02/29 03:15:18;;;;;;;9.90;3.40;;;;;;;4.77;55.70;101415.45;104613;1269;60162;-60
2024/02/29 03:17:46;;;;;;;9.50;2.40;;;;;;;4.86;55.65;101412.48;104684;1269;59768;-60
2024/02/29 03:20:14;;;;;;;8.30;2.60;;;;;;;4.93;55.62;101410.81;104702;1268;62948;-59
2024/02/29 03:22:42;;;;;;;7.50;2.80;;;;;;;4.95;55.58;101410.19;104585;1269;60419;-61
2024/02/29 03:25:10;;;;;;;10.70;2.30;;;;;;;4.98;55.60;101408.88;104703;1269;65230;-60
2024/02/29 03:27:38;;;;;;;9.40;3.00;;;;;;;4.98;55.43;101407.29;104616;1264;59666;-61
2024/02/29 03:30:07;;;;;;;7.70;3.30;;;;;;;4.96;55.22;101410.88;104528;1264;59670;-61
2024/02/29 03:32:34;;;;;;;6.10;2.40;;;;;;;4.94;55.14;101414.60;105600;1267;64278;-61
2024/02/29 03:35:04;;;;;;;10.30;3.40;;;;;;;4.92;55.13;101407.38;104631;1267;61549;-61
2024/02/29 03:37:31;;;;;;;9.90;3.30;;;;;;;4.91;55.09;101406.54;104815;1266;62795;-62
2024/02/29 03:39:59;;;;;;;9.30;2.60;;;;;;;4.85;54.99;101408.70;105025;1267;59664;-61
2024/02/29 03:42:27;;;;;;;9.60;3.10;;;;;;;4.78;55.05;101411.59;104707;1267;59797;-60
2024/02/29 03:44:54;;;;;;;8.60;3.50;;;;;;;4.73;55.28;101410.39;104609;1263;62938;-60
2024/02/29 03:47:25;;;;;;;8.60;3.70;;;;;;;4.69;55.33;101406.88;105029;1268;60345;-60
2024/02/29 03:49:52;;;;;;;8.50;3.50;;;;;;;4.67;55.41;101406.11;104547;1268;63878;-61
2024/02/29 03:52:20;;;;;;;10.30;2.80;;;;;;;4.65;55.49;101411.91;104585;1268;59794;-60
2024/02/29 03:54:48;;;;;;;7.80;2.90;;;;;;;4.64;55.52;101417.14;104406;1264;59659;-59
2024/02/29 03:57:15;;;;;;;8.50;3.40;;;;;;;4.63;55.56;101417.55;104622;1263;62972;-60
2024/02/29 03:59:46;;;;;;;10.50;3.40;;;;;;;4.60;55.51;101411.23;104592;1268;60339;-60
2024/02/29 04:02:14;;;;;;;6.00;2.30;;;;;;;4.56;55.52;101409.66;104571;1267;65947;-60
2024/02/29 04:04:42;;;;;;;6.50;2.30;;;;;;;4.52;55.72;101411.38;106264;1265;59753;-61
2024/02/29 04:07:10;;;;;;;7.30;2.40;;;;;;;4.54;55.64;101417.38;104695;1262;59675;-60
2024/02/29 04:09:38;;;;;;;5.30;2.20;;;;;;;4.60;55.57;101418.69;105809;1267;64198;-61
2024/02/29 04:12:06;;;;;;;8.50;2.10;;;;;;;4.68;55.57;101422.05;104566;1269;61641;-61
2024/02/29 04:14:38;;;;;;;9.10;3.90;;;;;;;4.77;55.53;101429.34;105800;1268;64417;-61
2024/02/29 04:17:06;;;;;;;7.00;2.00;;;;;;;4.86;55.51;101426.56;104852;1267;59797;-60
2024/02/29 04:19:34;;;;;;;13.90;3.10;;;;;;;4.94;55.42;101423.46;104658;1263;59701;-60
2024/02/29 04:22:02;;;;;;;19.40;6.60;;;;;;;4.99;55.25;101428.13;104675;1268;64312;-59
2024/02/29 04:24:30;;;;;;;7.20;2.50;;;;;;;5.00;55.22;101432.44;104772;1269;61314;-60
2024/02/29 04:26:57;;;;;;;10.50;3.40;;;;;;;5.01;55.28;101426.13;105141;1266;62559;-61
2024/02/29 04:29:25;;;;;;;8.90;3.40;;;;;;;5.00;55.18;101426.00;105250;1265;59643;-60
2024/02/29 04:31:53;;;;;;;9.10;2.70;;;;;;;4.98;55.16;101426.25;104732;1266;59716;-60
2024/02/29 04:34:21;;;;;;;7.50;2.30;;;;;;;4.93;55.12;101424.54;106229;1266;64682;-59
2024/02/29 04:36:49;;;;;;;8.90;3.60;;;;;;;4.90;55.11;101429.88;104837;1265;60266;-61
2024/02/29 04:39:17;;;;;;;10.30;2.80;;;;;;;4.88;55.19;101433.08;104750;1267;62604;-61
2024/02/29 04:41:45;;;;;;;10.50;3.10;;;;;;;4.85;55.08;101435.11;104793;1260;60488;-60
2024/02/29 04:44:13;;;;;;;12.20;3.10;;;;;;;4.81;55.03;101435.45;105641;1261;61734;-60
2024/02/29 04:46:41;;;;;;;7.70;2.10;;;;;;;4.75;55.09;101442.27;104752;1265;65011;-59
2024/02/29 04:49:09;;;;;;;7.60;2.60;;;;;;;4.71;55.04;101447.98;104981;1267;60534;-60
2024/02/29 04:51:36;;;;;;;6.20;2.30;;;;;;;4.67;55.07;101452.50;104742;1265;62595;-60
2024/02/29 04:54:04;;;;;;;11.20;2.80;;;;;;;4.61;55.10;101452.03;104759;1260;60892;-60
2024/02/29 04:56:32;;;;;;;7.70;2.70;;;;;;;4.55;55.15;101459.18;104798;1273;60503;-61
2024/02/29 04:59:00;;;;;;;6.60;2.80;;;;;;;4.52;55.29;101464.69;104929;1266;65398;-60
2024/02/29 05:01:28;;;;;;;7.00;4.00;;;;;;;4.52;55.41;101466.95;104655;1266;61553;-59
2024/02/29 05:03:56;;;;;;;7.10;3.10;;;;;;;4.52;55.44;101466.96;105247;1266;62807;-60
2024/02/29 05:06:24;;;;;;;9.80;2.20;;;;;;;4.50;55.46;101464.26;104725;1266;60461;-59
2024/02/29 05:08:52;;;;;;;8.20;2.70;;;;;;;4.49;55.53;101461.02;104601;1261;60467;-59
2024/02/29 05:11:20;;;;;;;6.10;1.60;;;;;;;4.54;55.53;101458.21;104601;1266;63722;-63
2024/02/29 05:13:48;;;;;;;8.70;1.80;;;;;;;4.63;55.38;101455.80;104750;1265;61110;-60
2024/02/29 05:16:17;;;;;;;5.70;2.50;;;;;;;4.73;55.14;101461.48;104839;1266;65716;-61
2024/02/29 05:18:45;;;;;;;5.90;1.90;;;;;;;4.83;55.11;101462.83;104742;1260;60472;-61
2024/02/29 05:21:13;;;;;;;5.20;1.40;;;;;;;4.96;54.81;101461.65;104634;1261;60545;-61
2024/02/29 05:23:41;;;;;;;9.10;2.00;;;;;;;5.06;54.62;101462.11;104530;1266;63803;-60
2024/02/29 05:26:10;;;;;;;8.10;3.60;;;;;;;5.14;54.32;101463.17;104700;1267;60496;-59
2024/02/29 05:28:38;;;;;;;7.00;1.90;;;;;;;5.19;53.87;101463.69;104613;1262;74112;-61
2024/02/29 05:31:06;;;;;;;4.40;1.50;;;;;;;5.22;53.59;101464.10;105128;1254;60521;-59
2024/02/29 05:33:34;;;;;;;11.20;2.30;;;;;;;5.26;53.38;101465.86;107810;1254;58245;-58
2024/02/29 05:36:01;;;;;;;9.40;2.60;;;;;;;5.29;53.14;101464.69;105078;1258;64986;-59
2024/02/29 05:38:29;;;;;;;8.10;2.60;;;;;;;5.29;53.01;101464.70;105147;1257;60535;-61
2024/02/29 05:40:57;;;;;;;7.80;3.10;;;;;;;5.30;52.90;101464.27;105116;1267;62522;-63
2024/02/29 05:43:25;;;;;;;9.00;3.90;;;;;;;5.33;52.75;101460.66;105625;1259;60557;-66
2024/02/29 05:45:54;;;;;;;10.00;3.40;;;;;;;5.34;52.58;101458.36;106547;1254;60531;-62
2024/02/29 05:48:21;;;;;;;6.70;2.60;;;;;;;5.34;52.52;101465.00;106582;1256;65044;-53
2024/02/29 05:50:49;;;;;;;10.30;2.20;;;;;;;5.32;52.52;101468.02;105149;1258;60303;-63
2024/02/29 05:53:16;;;;;;;6.70;2.00;;;;;;;5.33;52.48;101463.96;104971;1260;62529;-60
2024/02/29 05:55:44;;;;;;;11.80;3.30;;;;;;;5.35;52.35;101461.13;105040;1258;60576;-54
2024/02/29 05:58:12;;;;;;;10.00;2.50;;;;;;;5.36;52.26;101455.70;107825;1254;58088;-56
2024/02/29 06:00:40;;;;;;;6.30;2.40;;;;;;;5.37;52.21;101458.42;105192;1254;63697;-67
2024/02/29 06:03:08;;;;;;;8.60;2.80;;;;;;;5.38;52.11;101454.52;105347;1257;61920;-70
2024/02/29 06:05:36;;;;;;;7.60;2.10;;;;;;;5.41;52.03;101456.17;105078;1254;62520;-67
2024/02/29 06:08:04;;;;;;;7.20;2.60;;;;;;;5.44;52.04;101455.21;106491;1255;60600;-62
2024/02/29 06:10:31;;;;;;;8.80;2.00;;;;;;;5.46;51.97;101450.42;105298;1254;60393;-57
2024/02/29 06:12:59;;;;;;;6.30;2.70;;;;;;;5.46;52.13;101454.97;105122;1254;63901;-64
2024/02/29 06:15:27;;;;;;;10.30;3.90;;;;;;;5.46;52.04;101459.64;105116;1254;72655;-61
2024/02/29 06:17:56;;;;;;;8.20;2.80;;;;;;;5.49;52.03;101466.48;105705;1254;62543;-57
2024/02/29 06:20:24;;;;;;;10.40;3.30;;;;;;;5.53;51.95;101468.55;105259;1258;60551;-60
2024/02/29 06:22:51;;;;;;;6.50;2.20;;;;;;;5.57;51.84;101468.40;105189;1254;61770;-59
2024/02/29 06:25:20;;;;;;;7.60;2.90;;;;;;;5.62;51.72;101468.37;105271;1254;63732;-57
2024/02/29 06:27:48;;;;;;;7.70;2.50;;;;;;;5.66;51.45;101468.72;105371;1257;60486;-61
2024/02/29 06:30:16;;;;;;;6.50;1.90;;;;;;;5.70;51.36;101468.75;105781;1254;63766;-62
2024/02/29 06:32:44;;;;;;;7.10;2.70;;;;;;;5.75;51.20;101472.18;105651;1254;60568;-63
2024/02/29 06:35:12;;;;;;;11.50;3.10;;;;;;;5.79;51.05;101478.28;106158;1254;59919;-61
2024/02/29 06:37:44;;;;;;;7.10;2.40;;;;;;;5.84;50.91;101476.84;105268;1254;65479;-62
2024/02/29 06:40:11;;;;;;;8.30;2.90;;;;;;;5.89;50.74;101483.58;105006;1252;61716;-64
2024/02/29 06:42:40;;;;;;;5.70;1.90;;;;;;;5.94;50.61;101486.70;104986;1259;62520;-62
2024/02/29 06:45:09;;;;;;;9.30;2.20;;;;;;;5.99;50.34;101481.49;104933;1257;60638;-68
2024/02/29 06:47:40;;;;;;;10.30;2.40;;;;;;;6.02;50.09;101469.98;104985;1257;61220;-65
2024/02/29 06:50:12;;;;;;;6.20;2.10;;;;;;;6.05;49.76;101470.73;107044;1254;65599;-62
2024/02/29 06:52:40;;;;;;;5.50;2.20;;;;;;;6.09;49.38;101474.26;105303;1257;61593;-65
2024/02/29 06:55:09;;;;;;;5.10;2.10;;;;;;;6.13;49.45;101475.27;105340;1256;72941;-61
2024/02/29 06:57:38;;;;;;;12.50;2.80;;;;;;;6.19;49.36;101478.48;105423;1256;60446;-59
2024/02/29 07:00:10;;;;;;;7.40;2.20;;;;;;;6.27;49.10;101476.60;105217;1254;60582;-60
2024/02/29 07:02:38;;;;;;;9.20;2.50;;;;;;;6.33;49.05;101477.37;105842;1251;63718;-60
2024/02/29 07:05:08;;;;;;;6.40;2.60;;;;;;;6.39;48.99;101477.46;105395;1255;60504;-62
2024/02/29 07:07:36;;;;;;;6.40;2.50;;;;;;;6.46;48.98;101479.19;105498;1257;64359;-58
2024/02/29 07:10:07;;;;;;;7.40;2.30;;;;;;;6.56;48.85;101482.08;106177;1251;60410;-57
2024/02/29 07:12:35;;;;;;;6.70;2.60;;;;;;;6.64;48.68;101479.98;105693;1256;60383;-57
2024/02/29 07:15:03;;;;;;;8.10;2.40;;;;;;;6.72;48.78;101477.35;105220;1257;65077;-59
2024/02/29 07:17:31;;;;;;;10.60;2.00;;;;;;;6.82;48.76;101476.15;105320;1253;60481;-56
2024/02/29 07:19:58;;;;;;;5.70;2.00;;;;;;;6.94;48.73;101473.19;105191;1257;63981;-67
2024/02/29 07:22:26;;;;;;;16.40;6.20;;;;;;;7.05;48.44;101477.73;105824;1256;60672;-67
2024/02/29 07:24:54;;;;;;;5.00;1.70;;;;;;;7.12;48.05;101478.44;106306;1252;60505;-61
2024/02/29 07:27:21;;;;;;;7.70;2.30;;;;;;;7.19;48.13;101480.18;107543;1255;65537;-64
2024/02/29 07:29:49;;;;;;;7.30;2.10;;;;;;;7.26;48.13;101476.71;105146;1254;61518;-61
2024/02/29 07:32:17;;;;;;;7.40;3.30;;;;;;;7.35;47.97;101476.98;104947;1258;63855;-59
2024/02/29 07:34:44;;;;;;;7.50;1.90;;;;;;;7.44;47.70;101476.15;107313;1254;60481;-63
2024/02/29 07:37:12;;;;;;;5.70;1.80;;;;;;;7.52;47.54;101471.27;105066;1254;61013;-60
2024/02/29 07:39:40;;;;;;;15.60;5.10;;;;;;;7.61;47.50;101470.80;109136;1254;63799;-61
2024/02/29 07:42:09;;;;;;;6.50;1.80;;;;;;;7.71;47.50;101467.15;109202;1252;60277;-61
2024/02/29 07:44:36;;;;;;;6.60;2.10;;;;;;;7.82;47.34;101468.32;107690;1254;62669;-66
2024/02/29 07:47:04;;;;;;;11.00;3.40;;;;;;;7.91;47.15;101465.10;106050;1254;60540;-62
2024/02/29 07:49:32;;;;;;;8.60;2.40;;;;;;;7.99;47.10;101464.47;105936;1256;60683;-61
2024/02/29 07:52:01;;;;;;;12.40;5.00;;;;;;;8.08;47.24;101463.34;106201;1254;65418;-61
2024/02/29 07:54:28;;;;;;;7.40;2.60;;;;;;;8.18;47.34;101461.95;105703;1255;60534;-60
2024/02/29 07:56:56;;;;;;;9.90;3.30;;;;;;;8.28;47.27;101460.92;105072;1259;65765;-61
2024/02/29 07:59:25;;;;;;;12.00;5.90;;;;;;;8.38;47.08;101463.67;106348;1257;60547;-62
2024/02/29 08:01:53;;;;;;;6.50;2.50;;;;;;;8.49;46.82;101464.86;106185;1254;60496;-61
2024/02/29 08:04:21;;;;;;;7.80;3.10;;;;;;;8.60;46.55;101466.71;106197;1257;65477;-65
2024/02/29 08:06:49;;;;;;;18.90;6.10;;;;;;;8.69;46.37;101466.23;106059;1256;60505;-62
2024/02/29 08:09:17;;;;;;;7.40;2.30;;;;;;;8.77;46.18;101468.05;106121;1253;64057;-61
2024/02/29 08:11:44;;;;;;;7.20;2.80;;;;;;;8.84;45.95;101474.54;105901;1254;60534;-65
2024/02/29 08:14:12;;;;;;;7.50;2.70;;;;;;;8.89;45.57;101469.16;106174;1253;60330;-60
2024/02/29 08:16:39;;;;;;;15.30;6.30;;;;;;;8.93;45.55;101463.14;105196;1254;63738;-62
2024/02/29 08:19:07;;;;;;;10.80;2.80;;;;;;;8.99;45.62;101463.86;105129;1254;60426;-61
2024/02/29 08:21:35;;;;;;;12.70;6.00;;;;;;;9.06;45.71;101461.56;106324;1253;64032;-63
2024/02/29 08:24:05;;;;;;;6.50;2.70;;;;;;;9.15;45.76;101460.02;106424;1253;60454;-61
2024/02/29 08:26:32;;;;;;;12.70;5.80;;;;;;;9.23;45.55;101457.60;106210;1257;60384;-61
2024/02/29 08:29:00;;;;;;;8.00;3.50;;;;;;;9.31;45.71;101454.02;105620;1257;64937;-63
2024/02/29 08:31:28;;;;;;;20.30;6.80;;;;;;;9.41;45.55;101450.33;105304;1257;60498;-64
2024/02/29 08:33:56;;;;;;;11.00;3.50;;;;;;;9.49;45.04;101448.95;106474;1252;65899;-60
2024/02/29 08:36:24;;;;;;;15.90;6.60;;;;;;;9.55;44.92;101454.59;105663;1257;60554;-59
2024/02/29 08:38:52;;;;;;;15.80;5.10;;;;;;;9.58;44.76;101452.44;105247;1257;60459;-60
2024/02/29 08:41:20;;;;;;;14.30;5.60;;;;;;;9.63;44.62;101450.09;105105;1258;64922;-61
2024/02/29 08:43:48;;;;;;;12.10;3.10;;;;;;;9.67;44.60;101453.87;105345;1253;61558;-59
2024/02/29 08:46:15;;;;;;;8.30;3.00;;;;;;;9.72;44.63;101454.64;105085;1253;62526;-61
2024/02/29 08:48:46;;;;;;;15.70;5.70;;;;;;;9.79;44.77;101453.35;105252;1253;60937;-59
2024/02/29 08:51:14;;;;;;;9.20;3.10;;;;;;;9.86;44.72;101451.87;105253;1257;60420;-61
2024/02/29 08:53:42;;;;;;;14.50;7.10;;;;;;;9.94;44.69;101451.39;105236;1260;65246;-61
2024/02/29 08:56:10;;;;;;;8.10;2.90;;;;;;;10.01;44.50;101443.61;105415;1253;62095;-62
2024/02/29 08:58:37;;;;;;;12.60;6.10;;;;;;;10.07;44.28;101441.13;105497;1253;62501;-62
2024/02/29 09:01:05;;;;;;;13.00;3.90;;;;;;;10.14;44.03;101444.55;106234;1254;60408;-59
2024/02/29 09:03:33;;;;;;;14.60;6.20;;;;;;;10.19;44.05;101450.17;105193;1253;60550;-58
2024/02/29 09:06:01;;;;;;;9.70;3.20;;;;;;;10.25;44.06;101451.27;105550;1254;63726;-64
2024/02/29 09:08:28;;;;;;;15.80;7.30;;;;;;;10.31;43.95;101458.08;105297;1252;61611;-61
2024/02/29 09:10:56;;;;;;;10.20;4.00;;;;;;;10.37;43.79;101456.85;105813;1252;64167;-59
2024/02/29 09:13:24;;;;;;;16.40;7.30;;;;;;;10.43;43.78;101453.37;105243;1254;61246;-60
2024/02/29 09:16:03;;;;;;;12.90;4.40;;;;;;;10.49;43.60;101452.10;105911;1253;60641;-60
2024/02/29 09:18:31;;;;;;;14.80;6.70;;;;;;;10.53;43.43;101448.34;105710;1252;64930;-58
2024/02/29 09:20:59;;;;;;;7.70;3.30;;;;;;;10.56;43.37;101453.05;105575;1254;60447;-66
2024/02/29 09:23:28;;;;;;;17.40;6.90;;;;;;;10.59;43.45;101454.80;106165;1252;63855;-61
2024/02/29 09:25:56;;;;;;;17.10;7.40;;;;;;;10.62;43.30;101451.45;105928;1256;60550;-59
2024/02/29 09:28:24;;;;;;;11.80;3.30;;;;;;;10.66;43.30;101449.30;105223;1254;60524;-61
2024/02/29 09:30:53;;;;;;;14.50;6.50;;;;;;;10.69;43.25;101448.18;105853;1253;63808;-57
2024/02/29 09:33:21;;;;;;;16.40;6.30;;;;;;;10.77;43.23;101448.23;105926;1252;60466;-62
2024/02/29 09:35:55;;;;;;;8.10;3.80;;;;;;;10.86;43.15;101450.30;106062;1257;64101;-62
2024/02/29 09:38:24;;;;;;;12.30;6.40;;;;;;;10.96;43.14;101451.06;106198;1256;60492;-60
2024/02/29 09:40:52;;;;;;;15.60;7.00;;;;;;;11.04;42.99;101452.10;106397;1251;60458;-59
2024/02/29 09:43:34;;;;;;;11.50;3.90;;;;;;;11.12;42.93;101450.50;106115;1257;68036;-61
2024/02/29 09:46:06;;;;;;;15.90;6.40;;;;;;;11.22;42.79;101449.88;105697;1251;61516;-59
2024/02/29 09:48:34;;;;;;;15.00;6.10;;;;;;;11.30;42.58;101449.51;105326;1258;62582;-60
2024/02/29 09:51:02;;;;;;;13.30;6.20;;;;;;;11.37;42.54;101443.42;106477;1256;60499;-62
2024/02/29 09:53:29;;;;;;;16.50;6.70;;;;;;;11.46;42.38;101444.11;105697;1251;60434;-58
2024/02/29 09:55:57;;;;;;;17.40;6.70;;;;;;;11.54;42.07;101441.47;105202;1251;63745;-57
2024/02/29 09:58:25;;;;;;;16.20;6.60;;;;;;;11.60;42.14;101443.16;105750;1252;61743;-57
2024/02/29 10:00:53;;;;;;;12.60;5.70;;;;;;;11.66;42.10;101439.55;105722;1256;62537;-58
2024/02/29 10:03:21;;;;;;;15.40;5.70;;;;;;;11.76;41.98;101438.41;105043;1253;60887;-57
2024/02/29 10:05:48;;;;;;;12.80;5.60;;;;;;;11.85;41.76;101437.90;109064;1256;58129;-61
2024/02/29 10:08:16;;;;;;;12.30;5.90;;;;;;;11.94;41.47;101434.89;105235;1251;63811;-65
2024/02/29 10:10:47;;;;;;;17.90;6.40;;;;;;;12.02;41.33;101431.86;105219;1256;60714;-60
2024/02/29 10:13:17;;;;;;;12.20;5.80;;;;;;;12.12;41.12;101428.56;105816;1254;64238;-60
2024/02/29 10:15:50;;;;;;;12.00;5.00;;;;;;;12.22;40.90;101428.37;107806;1252;59538;-62
2024/02/29 10:18:18;;;;;;;10.90;6.00;;;;;;;12.33;40.68;101424.77;106116;1251;61297;-66
2024/02/29 10:20:46;;;;;;;14.30;5.30;;;;;;;12.46;40.24;101420.90;106611;1254;74076;-62
2024/02/29 10:23:14;;;;;;;12.00;5.70;;;;;;;12.56;40.11;101419.48;104995;1258;60532;-62
2024/02/29 10:25:42;;;;;;;15.50;6.10;;;;;;;12.65;39.24;101418.09;106631;1253;65194;-59
2024/02/29 10:28:12;;;;;;;13.00;5.40;;;;;;;12.71;39.12;101416.95;106183;1254;60533;-63
2024/02/29 10:30:40;;;;;;;14.30;6.10;;;;;;;12.77;39.27;101419.52;106152;1253;60394;-63
2024/02/29 10:33:10;;;;;;;12.00;5.50;;;;;;;12.82;39.11;101423.34;105239;1253;63798;-63
2024/02/29 10:35:39;;;;;;;14.90;5.20;;;;;;;12.90;39.06;101424.95;106058;1253;60520;-59
2024/02/29 10:38:08;;;;;;;12.90;5.70;;;;;;;12.96;38.76;101426.75;107728;1254;63814;-60
2024/02/29 10:40:36;;;;;;;12.70;5.50;;;;;;;13.01;38.59;101422.33;105120;1256;60439;-60
2024/02/29 10:43:12;;;;;;;11.60;5.30;;;;;;;13.05;38.81;101418.22;105264;1253;60444;-62
2024/02/29 10:45:46;;;;;;;11.90;5.40;;;;;;;13.10;38.99;101412.16;106034;1254;65155;-60
2024/02/29 10:48:20;;;;;;;12.60;5.80;;;;;;;13.19;39.16;101403.21;105737;1253;61588;-63
2024/02/29 10:50:54;;;;;;;13.00;5.60;;;;;;;13.31;39.24;101401.28;105698;1256;63809;-59
2024/02/29 10:53:48;;;;;;;13.10;5.40;;;;;;;13.44;39.18;101404.06;105748;1256;60430;-60
2024/02/29 10:56:23;;;;;;;12.90;5.50;;;;;;;13.55;38.82;101400.36;105255;1253;60383;-59
2024/02/29 10:58:57;;;;;;;14.10;5.90;;;;;;;13.67;38.63;101394.92;105740;1256;65027;-58
2024/02/29 11:01:31;;;;;;;16.10;6.30;;;;;;;13.76;38.45;101388.72;105416;1257;60721;-59
2024/02/29 11:04:04;;;;;;;13.00;6.10;;;;;;;13.82;38.31;101384.73;105718;1253;63832;-61
2024/02/29 11:06:47;;;;;;;14.10;6.90;;;;;;;13.88;38.54;101381.30;105182;1260;60435;-57
2024/02/29 11:09:16;;;;;;;12.50;6.10;;;;;;;13.94;38.24;101376.41;105857;1253;60530;-60
2024/02/29 11:11:45;;;;;;;12.30;5.80;;;;;;;13.99;38.32;101373.20;105825;1253;64970;-59
2024/02/29 11:14:15;;;;;;;12.00;5.60;;;;;;;14.06;38.38;101371.23;106002;1257;60276;-60
2024/02/29 11:16:44;;;;;;;11.50;5.70;;;;;;;14.14;38.20;101373.07;106820;1254;62907;-60
2024/02/29 11:19:18;;;;;;;15.40;6.50;;;;;;;14.22;38.51;101372.61;105349;1254;60557;-61
2024/02/29 11:21:46;;;;;;;20.20;7.00;;;;;;;14.32;38.19;101368.05;105712;1253;60488;-63
2024/02/29 11:24:20;;;;;;;17.20;6.90;;;;;;;14.42;37.93;101367.08;106042;1253;64963;-63
2024/02/29 11:26:55;;;;;;;12.30;6.30;;;;;;;14.50;37.97;101371.02;106126;1259;61561;-60